createdAt,value
2019-03-28T00:00:04.365Z,9.20
2019-03-28T00:02:43.921Z,8.80
2019-03-28T00:05:13.207Z,8.25
2019-03-28T00:07:42.375Z,8.60
2019-03-28T00:10:11.591Z,9.15
2019-03-28T00:12:40.821Z,9.75
2019-03-28T00:15:10.096Z,9.00
2019-03-28T00:17:39.355Z,9.30
2019-03-28T00:20:08.688Z,8.80
2019-03-28T00:22:39.589Z,9.38
2019-03-28T00:25:13.240Z,9.23
2019-03-28T00:27:42.411Z,9.90
2019-03-28T00:30:11.604Z,9.58
2019-03-28T00:32:40.915Z,9.90
2019-03-28T00:35:10.103Z,10.28
2019-03-28T00:37:39.274Z,8.58
2019-03-28T00:40:08.520Z,9.68
2019-03-28T00:42:37.849Z,9.83
2019-03-28T00:45:07.045Z,10.10
2019-03-28T00:47:36.374Z,9.85
2019-03-28T00:50:06.554Z,9.83
2019-03-28T00:52:35.767Z,9.70
2019-03-28T00:55:06.010Z,9.55
2019-03-28T00:57:35.266Z,10.13
2019-03-28T01:00:06.017Z,10.65
2019-03-28T01:02:35.284Z,10.93
2019-03-28T01:05:06.004Z,10.23
2019-03-28T01:07:35.255Z,10.70
2019-03-28T01:10:05.722Z,10.25
2019-03-28T01:12:35.055Z,11.60
2019-03-28T01:15:05.911Z,10.30
2019-03-28T01:17:35.086Z,10.65
2019-03-28T01:20:05.725Z,11.22
2019-03-28T01:22:34.913Z,9.63
2019-03-28T01:25:05.351Z,10.10
2019-03-28T01:27:34.652Z,10.10
2019-03-28T01:30:05.282Z,10.45
2019-03-28T01:32:34.580Z,10.50
2019-03-28T01:35:04.148Z,10.43
2019-03-28T01:37:33.342Z,9.88
2019-03-28T01:40:02.509Z,11.08
2019-03-28T01:42:31.781Z,10.55
2019-03-28T01:45:00.937Z,10.08
2019-03-28T01:47:30.681Z,10.43
2019-03-28T01:49:59.920Z,10.85
2019-03-28T01:52:29.104Z,10.88
2019-03-28T01:54:58.259Z,12.50
2019-03-28T01:57:27.458Z,10.65
2019-03-28T01:59:56.723Z,10.65
2019-03-28T02:02:25.843Z,11.35
2019-03-28T02:04:55.054Z,10.48
2019-03-28T02:07:24.227Z,12.03
2019-03-28T02:09:53.414Z,11.45
2019-03-28T02:12:22.656Z,12.00
2019-03-28T02:14:51.806Z,11.48
2019-03-28T02:17:21.016Z,11.20
2019-03-28T02:19:50.291Z,11.48
2019-03-28T02:22:19.559Z,11.55
2019-03-28T02:24:48.750Z,12.70
2019-03-28T02:27:23.772Z,11.35
2019-03-28T02:29:48.846Z,12.25
2019-03-28T02:32:18.097Z,13.43
2019-03-28T02:34:49.152Z,12.78
2019-03-28T02:37:18.176Z,13.00
2019-03-28T02:39:47.337Z,13.05
2019-03-28T02:42:16.576Z,14.25
2019-03-28T02:44:45.770Z,14.03
2019-03-28T02:47:15.010Z,12.80
2019-03-28T02:49:44.223Z,13.85
2019-03-28T02:52:13.399Z,13.45
2019-03-28T02:54:42.599Z,14.07
2019-03-28T02:57:11.819Z,16.17
2019-03-28T02:59:41.076Z,14.30
2019-03-28T03:02:10.523Z,16.42
2019-03-28T03:04:39.822Z,16.70
2019-03-28T03:07:09.006Z,15.85
2019-03-28T03:09:38.294Z,16.25
2019-03-28T03:12:07.439Z,17.30
2019-03-28T03:14:37.521Z,18.32
2019-03-28T03:17:07.097Z,16.87
2019-03-28T03:19:36.256Z,18.67
2019-03-28T03:22:05.463Z,16.55
2019-03-28T03:24:35.726Z,18.77
2019-03-28T03:27:04.920Z,18.32
2019-03-28T03:29:34.268Z,16.75
2019-03-28T03:32:03.448Z,22.07
2019-03-28T03:34:33.111Z,18.67
2019-03-28T03:37:03.786Z,16.73
2019-03-28T03:39:33.359Z,17.73
2019-03-28T03:42:02.723Z,20.25
2019-03-28T03:44:32.977Z,18.02
2019-03-28T03:47:02.071Z,18.15
2019-03-28T03:49:31.359Z,18.48
2019-03-28T03:52:00.541Z,17.87
2019-03-28T03:54:32.679Z,18.80
2019-03-28T03:57:02.066Z,19.60
2019-03-28T03:59:31.240Z,18.30
2019-03-28T04:02:00.467Z,20.57
2019-03-28T04:04:29.912Z,17.77
2019-03-28T04:06:59.060Z,18.12
2019-03-28T04:09:28.287Z,18.02
2019-03-28T04:11:57.527Z,20.00
2019-03-28T04:14:26.686Z,19.73
2019-03-28T04:16:55.938Z,20.37
2019-03-28T04:19:25.227Z,20.68
2019-03-28T04:21:54.406Z,19.57
2019-03-28T04:24:23.517Z,20.90
2019-03-28T04:26:52.689Z,20.02
2019-03-28T04:29:21.953Z,19.27
2019-03-28T04:31:51.144Z,23.80
2019-03-28T04:34:20.334Z,20.52
2019-03-28T04:36:49.542Z,22.07
2019-03-28T04:39:18.727Z,21.82
2019-03-28T04:41:47.880Z,20.48
2019-03-28T04:44:17.130Z,19.85
2019-03-28T04:46:46.312Z,23.70
2019-03-28T04:49:15.833Z,21.73
2019-03-28T04:51:45.139Z,24.47
2019-03-28T04:54:14.296Z,20.85
2019-03-28T04:56:43.552Z,21.50
2019-03-28T04:59:12.704Z,22.07
2019-03-28T05:01:41.963Z,21.27
2019-03-28T05:04:11.077Z,21.00
2019-03-28T05:06:40.331Z,25.05
2019-03-28T05:09:09.502Z,22.62
2019-03-28T05:11:38.755Z,22.02
2019-03-28T05:14:07.980Z,21.10
2019-03-28T05:16:37.259Z,22.05
2019-03-28T05:19:06.419Z,22.67
2019-03-28T05:21:35.601Z,21.95
2019-03-28T05:24:04.793Z,22.95
2019-03-28T05:26:33.975Z,23.22
2019-03-28T05:29:03.071Z,21.60
2019-03-28T05:31:32.233Z,22.73
2019-03-28T05:34:01.428Z,25.05
2019-03-28T05:36:30.575Z,24.87
2019-03-28T05:38:59.785Z,23.20
2019-03-28T05:41:28.897Z,24.18
2019-03-28T05:43:57.967Z,22.60
2019-03-28T05:46:27.153Z,24.23
2019-03-28T05:48:56.332Z,24.12
2019-03-28T05:51:25.489Z,26.02
2019-03-28T05:53:54.681Z,24.12
2019-03-28T05:56:23.903Z,23.83
2019-03-28T05:58:54.266Z,25.35
2019-03-28T06:01:23.610Z,24.70
2019-03-28T06:03:52.790Z,26.57
2019-03-28T06:06:21.969Z,24.12
2019-03-28T06:08:51.115Z,26.12
2019-03-28T06:11:20.333Z,26.42
2019-03-28T06:13:49.590Z,25.37
2019-03-28T06:16:18.833Z,26.42
2019-03-28T06:18:47.947Z,25.72
2019-03-28T06:21:17.005Z,24.63
2019-03-28T06:23:46.341Z,25.97
2019-03-28T06:26:15.656Z,26.37
2019-03-28T06:28:45.027Z,28.55
2019-03-28T06:31:14.259Z,25.57
2019-03-28T06:33:44.598Z,25.97
2019-03-28T06:36:14.345Z,26.97
2019-03-28T06:38:43.622Z,26.70
2019-03-28T06:41:12.794Z,26.15
2019-03-28T06:43:42.172Z,31.55
2019-03-28T06:46:11.492Z,27.77
2019-03-28T06:48:40.601Z,28.25
2019-03-28T06:51:09.703Z,26.77
2019-03-28T06:53:39.011Z,28.57
2019-03-28T06:56:08.108Z,27.40
2019-03-28T06:58:37.280Z,28.87
2019-03-28T07:01:06.491Z,27.98
2019-03-28T07:03:35.685Z,27.02
2019-03-28T07:06:04.914Z,32.50
2019-03-28T07:08:34.092Z,25.92
2019-03-28T07:11:03.268Z,29.12
2019-03-28T07:13:32.502Z,25.80
2019-03-28T07:16:01.756Z,27.52
2019-03-28T07:18:30.999Z,26.05
2019-03-28T07:21:00.257Z,24.45
2019-03-28T07:23:29.515Z,24.05
2019-03-28T07:25:58.750Z,24.20
2019-03-28T07:28:28.019Z,25.12
2019-03-28T07:30:57.196Z,25.32
2019-03-28T07:33:26.343Z,23.70
2019-03-28T07:35:55.567Z,25.20
2019-03-28T07:38:24.722Z,24.18
2019-03-28T07:40:53.901Z,24.23
2019-03-28T07:43:25.212Z,22.35
2019-03-28T07:45:53.839Z,25.10
2019-03-28T07:48:23.004Z,25.68
2019-03-28T07:50:52.313Z,23.27
2019-03-28T07:53:21.640Z,22.65
2019-03-28T07:55:51.092Z,21.77
2019-03-28T07:58:20.362Z,25.50
2019-03-28T08:00:49.769Z,21.35
2019-03-28T08:03:19.168Z,21.90
2019-03-28T08:05:48.389Z,21.80
2019-03-28T08:08:17.763Z,20.10
2019-03-28T08:10:47.098Z,20.10
2019-03-28T08:13:17.478Z,20.55
2019-03-28T08:15:46.710Z,20.00
2019-03-28T08:18:16.004Z,18.77
2019-03-28T08:20:45.242Z,19.55
2019-03-28T08:23:14.575Z,18.23
2019-03-28T08:25:43.822Z,18.27
2019-03-28T08:28:13.223Z,19.95
2019-03-28T08:30:45.223Z,19.05
2019-03-28T08:33:13.442Z,18.00
2019-03-28T08:35:42.702Z,17.48
2019-03-28T08:38:12.031Z,17.02
2019-03-28T08:40:42.156Z,17.85
2019-03-28T08:43:11.497Z,17.92
2019-03-28T08:45:40.806Z,16.55
2019-03-28T08:48:10.106Z,15.28
2019-03-28T08:50:39.309Z,14.93
2019-03-28T08:53:08.615Z,15.18
2019-03-28T08:55:38.886Z,18.80
2019-03-28T08:58:08.233Z,16.05
2019-03-28T09:00:50.961Z,16.32
2019-03-28T09:03:08.504Z,15.65
2019-03-28T09:05:37.881Z,15.32
2019-03-28T09:08:07.249Z,15.28
2019-03-28T09:10:36.599Z,15.03
2019-03-28T09:13:05.917Z,15.28
2019-03-28T09:15:43.800Z,13.58
2019-03-28T09:18:06.205Z,15.55
2019-03-28T09:20:36.543Z,14.30
2019-03-28T09:23:05.754Z,14.98
2019-03-28T09:25:35.110Z,13.22
2019-03-28T09:28:04.374Z,15.38
2019-03-28T09:30:47.636Z,12.68
2019-03-28T09:33:05.596Z,13.55
2019-03-28T09:35:34.951Z,12.75
2019-03-28T09:38:04.451Z,13.30
2019-03-28T09:40:33.774Z,14.18
2019-03-28T09:43:03.106Z,14.58
2019-03-28T09:45:32.468Z,14.95
2019-03-28T09:48:01.805Z,14.07
2019-03-28T09:50:31.149Z,13.68
2019-03-28T09:53:00.757Z,12.70
2019-03-28T09:55:30.278Z,14.05
2019-03-28T09:57:59.636Z,15.10
2019-03-28T10:00:32.474Z,14.03
2019-03-28T10:02:59.840Z,16.32
2019-03-28T10:05:29.173Z,15.15
2019-03-28T10:07:58.498Z,16.48
2019-03-28T10:10:27.817Z,16.97
2019-03-28T10:12:57.078Z,15.38
2019-03-28T10:15:27.385Z,14.65
2019-03-28T10:17:56.759Z,15.50
2019-03-28T10:20:26.042Z,15.50
2019-03-28T10:22:55.354Z,15.08
2019-03-28T10:25:24.742Z,15.95
2019-03-28T10:27:53.994Z,15.25
2019-03-28T10:30:24.866Z,16.00
2019-03-28T10:32:54.174Z,15.58
2019-03-28T10:35:24.983Z,15.18
2019-03-28T10:37:54.292Z,14.45
2019-03-28T10:40:23.626Z,13.90
2019-03-28T10:42:52.961Z,14.60
2019-03-28T10:45:22.386Z,16.40
2019-03-28T10:47:51.713Z,15.72
2019-03-28T10:50:21.039Z,15.45
2019-03-28T10:52:50.278Z,15.90
2019-03-28T10:55:19.603Z,16.67
2019-03-28T10:57:48.974Z,15.83
2019-03-28T11:00:24.148Z,15.15
2019-03-28T11:02:49.335Z,16.37
2019-03-28T11:05:18.596Z,16.10
2019-03-28T11:07:47.936Z,15.10
2019-03-28T11:10:18.303Z,18.00
2019-03-28T11:12:47.598Z,18.20
2019-03-28T11:15:16.970Z,17.35
2019-03-28T11:17:46.357Z,18.98
2019-03-28T11:20:15.709Z,18.05
2019-03-28T11:22:45.089Z,19.95
2019-03-28T11:25:14.585Z,17.82
2019-03-28T11:27:43.939Z,18.02
2019-03-28T11:30:13.371Z,20.20
2019-03-28T11:32:42.666Z,18.23
2019-03-28T11:35:12.035Z,21.55
2019-03-28T11:37:41.423Z,17.80
2019-03-28T11:40:10.885Z,18.77
2019-03-28T11:42:40.205Z,19.80
2019-03-28T11:45:10.739Z,18.60
2019-03-28T11:47:40.057Z,16.90
2019-03-28T11:50:09.899Z,15.10
2019-03-28T11:52:42.417Z,15.80
2019-03-28T11:55:10.073Z,15.48
2019-03-28T11:57:39.374Z,15.25
2019-03-28T12:00:13.578Z,16.77
2019-03-28T12:02:42.921Z,15.63
2019-03-28T12:05:12.246Z,16.17
2019-03-28T12:07:41.571Z,15.08
2019-03-28T12:10:11.523Z,14.85
2019-03-28T12:12:40.822Z,13.93
2019-03-28T12:15:10.682Z,16.17
2019-03-28T12:17:40.008Z,13.68
2019-03-28T12:20:09.424Z,15.35
2019-03-28T12:22:38.780Z,14.90
2019-03-28T12:25:08.285Z,16.07
2019-03-28T12:27:37.637Z,15.85
2019-03-28T12:30:08.140Z,15.55
2019-03-28T12:32:37.484Z,15.32
2019-03-28T12:35:07.002Z,15.30
2019-03-28T12:37:36.846Z,14.07
2019-03-28T12:40:08.034Z,15.05
2019-03-28T12:42:37.342Z,16.42
2019-03-28T12:45:08.406Z,16.23
2019-03-28T12:47:42.601Z,16.40
2019-03-28T12:50:09.175Z,15.38
2019-03-28T12:52:38.478Z,15.63
2019-03-28T12:55:08.146Z,15.72
2019-03-28T12:57:37.442Z,16.45
2019-03-28T13:00:07.494Z,16.42
2019-03-28T13:02:36.813Z,15.95
2019-03-28T13:05:07.447Z,17.45
2019-03-28T13:07:36.792Z,15.58
2019-03-28T13:10:08.102Z,14.78
2019-03-28T13:12:37.794Z,15.15
2019-03-28T13:15:07.536Z,15.48
2019-03-28T13:17:36.872Z,16.55
2019-03-28T13:20:07.360Z,16.50
2019-03-28T13:22:36.717Z,16.32
2019-03-28T13:25:06.501Z,16.65
2019-03-28T13:27:36.520Z,18.23
2019-03-28T13:30:07.759Z,16.55
2019-03-28T13:32:41.923Z,16.65
2019-03-28T13:35:08.408Z,16.15
2019-03-28T13:37:37.766Z,16.00
2019-03-28T13:40:07.308Z,14.95
2019-03-28T13:42:36.750Z,15.18
2019-03-28T13:45:07.375Z,15.08
2019-03-28T13:47:36.648Z,16.00
2019-03-28T13:50:06.971Z,14.80
2019-03-28T13:52:36.188Z,15.55
2019-03-28T13:55:06.458Z,16.42
2019-03-28T13:57:35.674Z,15.58
2019-03-28T14:00:08.991Z,15.95
2019-03-28T14:02:38.217Z,17.73
2019-03-28T14:05:07.774Z,14.85
2019-03-28T14:07:36.921Z,17.05
2019-03-28T14:10:07.018Z,15.23
2019-03-28T14:12:36.226Z,15.93
2019-03-28T14:15:08.462Z,17.25
2019-03-28T14:17:37.664Z,16.90
2019-03-28T14:20:07.400Z,16.37
2019-03-28T14:22:37.309Z,19.00
2019-03-28T14:25:07.747Z,17.45
2019-03-28T14:27:36.978Z,17.00
2019-03-28T14:30:09.623Z,15.95
2019-03-28T14:32:52.175Z,16.55
2019-03-28T14:35:09.615Z,16.12
2019-03-28T14:37:40.742Z,16.12
2019-03-28T14:40:09.778Z,16.42
2019-03-28T14:42:39.054Z,16.57
2019-03-28T14:45:10.036Z,15.98
2019-03-28T14:47:39.233Z,16.12
2019-03-28T14:50:08.885Z,17.95
2019-03-28T14:52:38.681Z,16.80
2019-03-28T14:55:09.715Z,16.48
2019-03-28T14:57:38.899Z,21.55
2019-03-28T15:00:09.524Z,22.93
2019-03-28T15:02:38.754Z,19.45
2019-03-28T15:05:07.970Z,21.33
2019-03-28T15:07:37.214Z,23.98
2019-03-28T15:10:06.750Z,21.68
2019-03-28T15:12:35.978Z,25.40
2019-03-28T15:15:05.725Z,24.60
2019-03-28T15:17:34.875Z,25.37
2019-03-28T15:20:05.278Z,24.95
2019-03-28T15:22:34.602Z,21.57
2019-03-28T15:25:04.642Z,25.88
2019-03-28T15:27:33.982Z,21.35
2019-03-28T15:30:04.343Z,23.45
2019-03-28T15:32:34.863Z,21.65
2019-03-28T15:35:04.634Z,21.68
2019-03-28T15:37:33.856Z,24.27
2019-03-28T15:40:04.160Z,20.65
2019-03-28T15:42:33.385Z,21.07
2019-03-28T15:45:02.718Z,20.32
2019-03-28T15:47:32.926Z,22.20
2019-03-28T15:50:02.292Z,22.00
2019-03-28T15:52:31.770Z,22.02
2019-03-28T15:55:01.221Z,19.65
2019-03-28T15:57:30.398Z,22.40
2019-03-28T15:59:59.726Z,20.45
2019-03-28T16:02:28.957Z,22.15
2019-03-28T16:04:58.432Z,22.55
2019-03-28T16:07:29.412Z,21.00
2019-03-28T16:09:58.358Z,21.45
2019-03-28T16:12:27.602Z,21.12
2019-03-28T16:14:56.807Z,19.87
2019-03-28T16:17:26.088Z,20.52
2019-03-28T16:19:55.492Z,20.77
2019-03-28T16:22:24.657Z,20.57
2019-03-28T16:24:53.780Z,20.68
2019-03-28T16:27:23.071Z,19.12
2019-03-28T16:29:54.343Z,18.45
2019-03-28T16:32:23.469Z,20.10
2019-03-28T16:34:52.683Z,21.25
2019-03-28T16:37:22.032Z,25.27
2019-03-28T16:39:51.190Z,21.73
2019-03-28T16:42:20.487Z,23.25
2019-03-28T16:44:49.769Z,22.25
2019-03-28T16:47:20.322Z,21.68
2019-03-28T16:49:53.710Z,22.45
2019-03-28T16:52:25.789Z,20.57
2019-03-28T16:54:56.433Z,20.37
2019-03-28T16:57:25.886Z,18.85
2019-03-28T16:59:55.108Z,20.20
2019-03-28T17:02:24.339Z,22.02
2019-03-28T17:04:53.441Z,21.30
2019-03-28T17:07:24.069Z,23.22
2019-03-28T17:09:53.244Z,19.65
2019-03-28T17:12:22.489Z,19.25
2019-03-28T17:14:51.831Z,20.10
2019-03-28T17:17:22.337Z,20.30
2019-03-28T17:19:52.650Z,21.87
2019-03-28T17:22:22.926Z,17.55
2019-03-28T17:24:52.074Z,18.35
2019-03-28T17:27:23.088Z,19.52
2019-03-28T17:29:52.136Z,18.70
2019-03-28T17:32:21.361Z,18.48
2019-03-28T17:34:50.506Z,17.82
2019-03-28T17:37:19.867Z,19.42
2019-03-28T17:39:49.169Z,16.30
2019-03-28T17:42:18.321Z,17.92
2019-03-28T17:44:47.485Z,20.32
2019-03-28T17:47:16.646Z,19.65
2019-03-28T17:49:45.854Z,18.15
2019-03-28T17:52:15.102Z,19.67
2019-03-28T17:54:44.225Z,19.60
2019-03-28T17:57:13.746Z,17.30
2019-03-28T17:59:45.307Z,15.38
2019-03-28T18:02:13.930Z,15.13
2019-03-28T18:04:48.051Z,16.55
2019-03-28T18:07:13.943Z,16.85
2019-03-28T18:09:43.161Z,16.62
2019-03-28T18:12:12.293Z,16.52
2019-03-28T18:14:41.502Z,19.77
2019-03-28T18:17:10.654Z,14.90
2019-03-28T18:19:39.821Z,17.75
2019-03-28T18:22:08.961Z,15.83
2019-03-28T18:24:38.198Z,18.23
2019-03-28T18:27:07.335Z,17.73
2019-03-28T18:29:36.651Z,21.33
2019-03-28T18:32:05.789Z,17.87
2019-03-28T18:34:35.020Z,17.10
2019-03-28T18:37:04.569Z,16.00
2019-03-28T18:39:33.738Z,17.12
2019-03-28T18:42:02.983Z,15.60
2019-03-28T18:44:32.233Z,16.02
2019-03-28T18:47:01.416Z,16.75
2019-03-28T18:49:31.076Z,15.08
2019-03-28T18:52:00.469Z,13.38
2019-03-28T18:54:29.615Z,15.23
2019-03-28T18:56:58.959Z,13.80
2019-03-28T18:59:28.110Z,14.28
2019-03-28T19:01:57.310Z,14.47
2019-03-28T19:04:26.519Z,11.60
2019-03-28T19:06:57.739Z,10.13
2019-03-28T19:09:26.511Z,13.15
2019-03-28T19:11:56.153Z,11.15
2019-03-28T19:14:25.453Z,12.07
2019-03-28T19:16:54.694Z,12.73
2019-03-28T19:19:23.879Z,11.28
2019-03-28T19:21:55.704Z,11.93
2019-03-28T19:24:25.735Z,14.10
2019-03-28T19:26:54.875Z,13.03
2019-03-28T19:29:24.110Z,12.40
2019-03-28T19:31:53.299Z,12.13
2019-03-28T19:34:22.586Z,12.58
2019-03-28T19:36:52.625Z,13.10
2019-03-28T19:39:27.666Z,11.95
2019-03-28T19:41:57.047Z,12.78
2019-03-28T19:44:26.563Z,12.65
2019-03-28T19:46:55.789Z,12.53
2019-03-28T19:49:25.065Z,15.15
2019-03-28T19:51:54.260Z,14.98
2019-03-28T19:54:23.456Z,15.30
2019-03-28T19:56:52.748Z,13.70
2019-03-28T19:59:21.935Z,13.43
2019-03-28T20:01:51.087Z,13.68
2019-03-28T20:04:20.721Z,12.90
2019-03-28T20:06:50.776Z,14.30
2019-03-28T20:09:20.167Z,13.70
2019-03-28T20:11:49.368Z,14.90
2019-03-28T20:14:18.564Z,17.35
2019-03-28T20:16:47.857Z,17.30
2019-03-28T20:19:17.971Z,19.90
2019-03-28T20:21:47.280Z,21.68
2019-03-28T20:24:16.521Z,19.77
2019-03-28T20:26:45.817Z,22.27
2019-03-28T20:29:16.014Z,21.37
2019-03-28T20:31:45.758Z,21.15
2019-03-28T20:34:15.074Z,18.95
2019-03-28T20:36:44.491Z,14.33
2019-03-28T20:39:14.731Z,13.15
2019-03-28T20:41:43.861Z,14.10
2019-03-28T20:44:13.106Z,12.75
2019-03-28T20:46:42.333Z,11.70
2019-03-28T20:49:11.503Z,12.58
2019-03-28T20:51:40.742Z,12.10
2019-03-28T20:54:09.958Z,12.75
2019-03-28T20:56:39.235Z,10.80
2019-03-28T20:59:08.456Z,10.45
2019-03-28T21:01:37.728Z,11.00
2019-03-28T21:04:07.204Z,10.82
2019-03-28T21:06:37.170Z,10.88
2019-03-28T21:09:06.663Z,11.48
2019-03-28T21:11:36.005Z,12.28
2019-03-28T21:14:05.163Z,9.00
2019-03-28T21:16:34.404Z,10.48
2019-03-28T21:19:03.630Z,11.05
2019-03-28T21:21:32.860Z,14.47
2019-03-28T21:24:02.102Z,10.35
2019-03-28T21:26:31.436Z,10.48
2019-03-28T21:29:00.614Z,11.28
2019-03-28T21:31:29.847Z,12.40
2019-03-28T21:33:59.156Z,10.38
2019-03-28T21:36:30.059Z,10.28
2019-03-28T21:38:59.295Z,14.58
2019-03-28T21:41:28.454Z,14.80
2019-03-28T21:43:57.639Z,12.35
2019-03-28T21:46:26.863Z,13.53
2019-03-28T21:48:56.065Z,11.00
2019-03-28T21:51:25.277Z,10.58
2019-03-28T21:53:54.439Z,12.93
2019-03-28T21:56:24.191Z,15.58
2019-03-28T21:58:53.630Z,12.30
2019-03-28T22:01:22.795Z,14.55
2019-03-28T22:03:51.939Z,11.45
2019-03-28T22:06:21.187Z,11.95
2019-03-28T22:08:51.489Z,12.65
2019-03-28T22:11:20.704Z,15.88
2019-03-28T22:13:49.978Z,12.20
2019-03-28T22:16:19.117Z,12.60
2019-03-28T22:18:48.286Z,11.95
2019-03-28T22:21:17.417Z,12.05
2019-03-28T22:23:46.851Z,11.73
2019-03-28T22:26:16.018Z,11.97
2019-03-28T22:28:45.191Z,13.80
2019-03-28T22:31:14.331Z,11.88
2019-03-28T22:33:43.543Z,12.70
2019-03-28T22:36:12.696Z,14.00
2019-03-28T22:38:41.839Z,9.83
2019-03-28T22:41:10.998Z,14.10
2019-03-28T22:43:40.170Z,14.30
2019-03-28T22:46:09.903Z,13.22
2019-03-28T22:48:39.917Z,15.40
2019-03-28T22:51:09.244Z,12.95
2019-03-28T22:53:38.499Z,11.68
2019-03-28T22:56:07.647Z,13.35
2019-03-28T22:58:36.827Z,12.95
2019-03-28T23:01:05.983Z,13.98
2019-03-28T23:03:35.222Z,19.37
2019-03-28T23:06:04.448Z,13.18
2019-03-28T23:08:33.621Z,16.75
2019-03-28T23:11:02.779Z,13.72
2019-03-28T23:13:31.906Z,13.25
2019-03-28T23:16:01.086Z,12.88
2019-03-28T23:18:30.221Z,12.85
2019-03-28T23:20:59.376Z,16.90
2019-03-28T23:23:28.557Z,16.48
2019-03-28T23:25:57.783Z,17.00
2019-03-28T23:28:26.884Z,13.00
2019-03-28T23:30:56.079Z,14.00
2019-03-28T23:33:25.303Z,18.57
2019-03-28T23:35:54.553Z,16.17
2019-03-28T23:38:23.810Z,15.23
2019-03-28T23:40:53.057Z,18.12
2019-03-28T23:43:22.283Z,16.12
2019-03-28T23:45:51.550Z,16.67
2019-03-28T23:48:21.163Z,13.30
2019-03-28T23:50:51.076Z,15.15
2019-03-28T23:53:20.370Z,12.85
2019-03-28T23:55:49.660Z,12.98
2019-03-28T23:58:18.976Z,11.80
